PWSweather.com
Personal Weather Stations
Station Observations
WAIROAHB
Wairoa, Northern Hawkes Bay -NZ 4108

WairoaNorthern Hawkes Bay -NZ 4108

Lat: -39.04516934, Lon: 177.4263989

Elevation: 156

Station Type: WS3083

http://wairoa.net/weather/index.htm

Latest ConditionsUpdated 3:50:03 AM GMT+12:12 Wednesday, Sep 26, 2018
Currently Today's Max Today's Min Today's Average
Temperature 48.2°F9.0°C 48.2°F9.0°C 42.4°F5.8°C 44.5°F6.9°C
Dew Point 39.6°F4.2°C 40.0°F4.4°C 37.3°F2.9°C 38.2°F3.4°C
Winds 3.1 mph NNW5.0 kmh NNW 6.9 mph -11.1 kmh - - 3.8 mph 6.1 kmh
Wind Gusts 13.0 mph20.9 kmh 13.0 mph20.9 kmh - -
Humidity 72% 85% 72% 79%
Pressure 29.55 in1000.7 mb 29.59 in1002.0 mb 29.55 in1000.7 mb -
Hour Temp Dew Point Humidity Winds Wind Gusts Pressure Precip Precip Rate Daily Precip Total
03:50 AM 48.2°F9.0°C 39.6°F4.2°C 72% 3.1 mph NNW5.0 kmh NNW 13.0 mph20.9 kmh 29.55 in1000.7 mb 0.00 in0.0 mm 0.00 in0.0 mm 0.00 in0.0 mm
03:40 AM 45.1°F7.3°C 40.0°F4.4°C 82% 6.9 mph NNW11.1 kmh NNW 10.7 mph17.2 kmh 29.55 in1000.7 mb 0.00 in0.0 mm 0.00 in0.0 mm 0.00 in0.0 mm
03:30 AM 42.8°F6.0°C 38.6°F3.7°C 85% 6.0 mph NW9.7 kmh NW 9.8 mph15.8 kmh 29.55 in1000.7 mb 0.00 in0.0 mm 0.00 in0.0 mm 0.00 in0.0 mm
03:20 AM 42.4°F5.8°C 38.0°F3.3°C 84% 3.1 mph NW5.0 kmh NW 5.4 mph8.7 kmh 29.56 in1001.0 mb 0.00 in0.0 mm 0.00 in0.0 mm 0.00 in0.0 mm
03:10 AM 42.8°F6.0°C 38.0°F3.3°C 83% 2.2 mph NW3.5 kmh NW 4.5 mph7.2 kmh 29.56 in1001.0 mb 0.00 in0.0 mm 0.00 in0.0 mm 0.00 in0.0 mm
03:00 AM 43.3°F6.3°C 38.2°F3.4°C 82% 3.1 mph NW5.0 kmh NW 6.9 mph11.1 kmh 29.56 in1001.0 mb 0.00 in0.0 mm 0.00 in0.0 mm 0.00 in0.0 mm
02:50 AM 44.2°F6.8°C 38.5°F3.6°C 80% 3.1 mph NW5.0 kmh NW 6.0 mph9.7 kmh 29.57 in1001.4 mb 0.00 in0.0 mm 0.00 in0.0 mm 0.00 in0.0 mm
02:40 AM 43.9°F6.6°C 38.1°F3.4°C 80% 3.8 mph NW6.1 kmh NW 6.9 mph11.1 kmh 29.57 in1001.4 mb 0.00 in0.0 mm 0.00 in0.0 mm 0.00 in0.0 mm
02:30 AM 44.1°F6.7°C 38.3°F3.5°C 80% 5.4 mph NW8.7 kmh NW 8.3 mph13.4 kmh 29.57 in1001.4 mb 0.00 in0.0 mm 0.00 in0.0 mm 0.00 in0.0 mm
02:20 AM 44.1°F6.7°C 37.6°F3.1°C 78% 3.8 mph NW6.1 kmh NW 4.5 mph7.2 kmh 29.57 in1001.4 mb 0.00 in0.0 mm 0.00 in0.0 mm 0.00 in0.0 mm
02:10 AM 44.8°F7.1°C 37.3°F2.9°C 75% 3.8 mph NW6.1 kmh NW 7.6 mph12.2 kmh 29.57 in1001.4 mb 0.00 in0.0 mm 0.00 in0.0 mm 0.00 in0.0 mm
02:00 AM 45.3°F7.4°C 37.5°F3.1°C 74% 4.5 mph NNW7.2 kmh NNW 7.6 mph12.2 kmh 29.58 in1001.7 mb 0.00 in0.0 mm 0.00 in0.0 mm 0.00 in0.0 mm
01:50 AM 45.5°F7.5°C 37.7°F3.2°C 74% 4.5 mph NNW7.2 kmh NNW 9.2 mph14.8 kmh 29.58 in1001.7 mb 0.00 in0.0 mm 0.00 in0.0 mm 0.00 in0.0 mm
01:40 AM 45.5°F7.5°C 37.7°F3.2°C 74% 3.8 mph NNW6.1 kmh NNW 6.9 mph11.1 kmh 29.58 in1001.7 mb 0.00 in0.0 mm 0.00 in0.0 mm 0.00 in0.0 mm
01:30 AM 45.1°F7.3°C 37.7°F3.2°C 75% 4.5 mph N7.2 kmh N 7.6 mph12.2 kmh 29.59 in1002.0 mb 0.00 in0.0 mm 0.00 in0.0 mm 0.00 in0.0 mm
01:20 AM 44.8°F7.1°C 37.7°F3.2°C 76% 3.8 mph NNW6.1 kmh NNW 6.9 mph11.1 kmh 29.59 in1002.0 mb 0.00 in0.0 mm 0.00 in0.0 mm 0.00 in0.0 mm
01:10 AM 44.8°F7.1°C 38.0°F3.3°C 77% 3.1 mph NNW5.0 kmh NNW 6.0 mph9.7 kmh 29.59 in1002.0 mb 0.00 in0.0 mm 0.00 in0.0 mm 0.00 in0.0 mm
01:00 AM 44.4°F6.9°C 38.3°F3.5°C 79% 3.8 mph N6.1 kmh N 6.0 mph9.7 kmh 29.59 in1002.0 mb 0.00 in0.0 mm 0.00 in0.0 mm 0.00 in0.0 mm
12:50 AM 43.9°F6.6°C 38.4°F3.6°C 81% 3.8 mph N6.1 kmh N 5.4 mph8.7 kmh 29.59 in1002.0 mb 0.00 in0.0 mm 0.00 in0.0 mm 0.00 in0.0 mm
12:40 AM 44.2°F6.8°C 38.5°F3.6°C 80% 2.2 mph N3.5 kmh N 5.4 mph8.7 kmh 29.59 in1002.0 mb 0.00 in0.0 mm 0.00 in0.0 mm 0.00 in0.0 mm
12:30 AM 44.4°F6.9°C 38.3°F3.5°C 79% 3.1 mph N5.0 kmh N 6.0 mph9.7 kmh 29.58 in1001.7 mb 0.00 in0.0 mm 0.00 in0.0 mm 0.00 in0.0 mm
12:20 AM 44.6°F7.0°C 38.2°F3.4°C 78% 3.1 mph N5.0 kmh N 6.0 mph9.7 kmh 29.59 in1002.0 mb 0.00 in0.0 mm 0.00 in0.0 mm 0.00 in0.0 mm
12:10 AM 44.6°F7.0°C 38.2°F3.4°C 78% 3.1 mph N5.0 kmh N 5.4 mph8.7 kmh 29.59 in1002.0 mb 0.00 in0.0 mm 0.00 in0.0 mm 0.00 in0.0 mm
12:00 AM 44.6°F7.0°C 38.2°F3.4°C 78% 3.1 mph N5.0 kmh N 5.4 mph8.7 kmh 29.58 in1001.7 mb 0.00 in0.0 mm 0.00 in0.0 mm 0.00 in0.0 mm